Time;durP1;ratioP1;P1;durP2;ratioP2;P2;SDS_P1;SDS_P2;PMS_P1;PMS_P2;Temp;Humidity;BMP_temperature;BMP_pressure;BME280_temperature;BME280_humidity;BME280_pressure;Samples;Min_cycle;Max_cycle;Signal;HPM_P1;HPM_P2
2022/01/21 00:01:40;;;;;;;6.10;2.22;;;-0.30;99.90;;;;;;5056125;28;20042;-66
2022/01/21 00:04:09;;;;;;;7.00;2.58;;;-0.30;99.90;;;;;;5056835;28;20048;-66
2022/01/21 00:06:36;;;;;;;7.13;2.85;;;-0.30;99.90;;;;;;5056418;28;20045;-66
2022/01/21 00:09:03;;;;;;;5.18;2.80;;;-0.30;99.90;;;;;;5055540;28;20043;-66
2022/01/21 00:11:31;;;;;;;6.82;2.72;;;-0.30;99.90;;;;;;5056627;28;20315;-66
2022/01/21 00:13:59;;;;;;;5.32;2.72;;;-0.30;99.90;;;;;;5054545;28;20040;-66
2022/01/21 00:16:28;;;;;;;5.38;3.03;;;-0.30;99.90;;;;;;5055852;28;20055;-66
2022/01/21 00:19:09;;;;;;;6.30;2.17;;;-0.30;99.90;;;;;;5054901;28;20044;-65
2022/01/21 00:32:32;;;;;;;10.80;3.58;;;-0.30;99.90;;;;;;5053606;28;20051;-66
2022/01/21 00:34:59;;;;;;;11.80;3.55;;;-0.30;99.90;;;;;;5072259;28;20590;-67
2022/01/21 00:37:26;;;;;;;7.35;3.45;;;-0.40;99.90;;;;;;5073590;28;21019;-66
2022/01/21 00:39:56;;;;;;;11.60;3.90;;;-0.40;99.90;;;;;;5075795;28;20117;-66
2022/01/21 00:44:58;;;;;;;17.90;5.78;;;-0.40;99.90;;;;;;5075798;28;20040;-66
2022/01/21 00:47:26;;;;;;;7.00;3.65;;;-0.40;99.90;;;;;;5049613;28;20485;-66
2022/01/21 00:49:54;;;;;;;10.93;3.92;;;-0.40;99.90;;;;;;5050569;28;20280;-66
2022/01/21 00:52:21;;;;;;;9.65;3.80;;;-0.40;99.90;;;;;;5054040;28;20056;-66
2022/01/21 00:54:48;;;;;;;8.82;3.58;;;-0.50;99.90;;;;;;5053403;28;20052;-66
2022/01/21 00:57:15;;;;;;;6.85;3.28;;;-0.50;99.90;;;;;;5054480;28;20499;-66
2022/01/21 00:59:42;;;;;;;11.43;3.78;;;-0.50;99.90;;;;;;5054788;28;20466;-66
2022/01/21 01:02:08;;;;;;;9.43;4.25;;;-0.50;99.90;;;;;;5056114;28;20049;-66
2022/01/21 01:04:35;;;;;;;8.82;3.70;;;-0.50;99.90;;;;;;5070900;28;20614;-66
2022/01/21 01:07:03;;;;;;;;;;;-0.50;99.90;;;;;;5055945;28;20098;-66
2022/01/21 01:09:32;;;;;;;9.30;3.78;;;-0.50;99.90;;;;;;5053462;28;19924;-66
2022/01/21 01:22:36;;;;;;;6.35;3.35;;;-0.60;99.90;;;;;;5055459;28;20115;-66
2022/01/21 01:27:50;;;;;;;12.15;4.03;;;-0.60;99.90;;;;;;5054955;28;20044;-66
2022/01/21 01:30:18;;;;;;;;;;;-0.60;99.90;;;;;;5055631;28;20049;-66
2022/01/21 01:32:48;;;;;;;10.75;4.43;;;-0.60;99.90;;;;;;5052655;28;19928;-66
2022/01/21 01:35:18;;;;;;;16.70;3.55;;;-0.60;99.90;;;;;;5056704;28;20040;-66
2022/01/21 01:40:43;;;;;;;9.45;3.72;;;-0.60;99.90;;;;;;5054991;28;20036;-66
2022/01/21 01:50:58;;;;;;;12.50;3.72;;;-0.60;99.90;;;;;;5058429;28;20052;-66
2022/01/21 01:53:30;;;;;;;10.95;3.95;;;-0.60;99.90;;;;;;5057357;28;20493;-66
2022/01/21 01:55:58;;;;;;;6.57;3.45;;;-0.60;99.90;;;;;;5057149;28;20052;-65
2022/01/21 01:58:25;;;;;;;8.00;4.50;;;-0.60;99.90;;;;;;5055619;28;20052;-66
2022/01/21 02:00:56;;;;;;;;;;;-0.60;99.90;;;;;;5058983;28;20037;-66
2022/01/21 02:03:24;;;;;;;6.63;3.20;;;-0.60;99.90;;;;;;5056754;28;20460;-66
2022/01/21 02:05:50;;;;;;;13.27;4.40;;;-0.60;99.90;;;;;;5058365;28;20399;-66
2022/01/21 02:08:17;;;;;;;;;;;-0.60;99.90;;;;;;5057400;28;20048;-66
2022/01/21 02:10:44;;;;;;;8.75;3.75;;;-0.60;99.90;;;;;;5059012;28;20308;-66
2022/01/21 02:21:43;;;;;;;7.25;2.83;;;-0.70;99.90;;;;;;5056819;28;20040;-66
2022/01/21 02:24:20;;;;;;;9.88;3.22;;;-0.60;99.90;;;;;;5040432;28;20044;-65
2022/01/21 02:26:49;;;;;;;10.15;3.85;;;-0.70;99.90;;;;;;5055744;28;20066;-66
2022/01/21 02:29:27;;;;;;;8.27;4.28;;;-0.70;99.90;;;;;;5056317;28;20043;-66
2022/01/21 02:31:57;;;;;;;8.93;3.08;;;-0.60;99.90;;;;;;5055978;28;20053;-66
2022/01/21 02:34:24;;;;;;;9.23;3.45;;;-0.60;99.90;;;;;;5056383;28;20059;-66
2022/01/21 02:36:52;;;;;;;8.85;3.35;;;-0.60;99.90;;;;;;5062562;28;20429;-66
2022/01/21 02:39:19;;;;;;;7.95;3.65;;;-0.60;99.90;;;;;;5036236;28;20057;-66
2022/01/21 02:41:46;;;;;;;9.38;3.42;;;-0.60;99.90;;;;;;5037955;28;20052;-65
2022/01/21 02:44:16;;;;;;;11.93;3.65;;;-0.70;99.90;;;;;;5038010;28;20041;-66
2022/01/21 02:46:46;;;;;;;6.53;3.03;;;-0.60;99.90;;;;;;5052987;28;20040;-65
2022/01/21 02:49:15;;;;;;;8.57;3.13;;;-0.70;99.90;;;;;;5068736;28;20418;-66
2022/01/21 02:51:42;;;;;;;5.95;3.42;;;-0.70;99.90;;;;;;5038929;28;20604;-66
2022/01/21 02:54:09;;;;;;;12.38;3.28;;;-0.70;99.90;;;;;;5057545;28;20117;-66
2022/01/21 02:56:39;;;;;;;10.00;2.90;;;-0.70;99.90;;;;;;5056066;28;20403;-66
2022/01/21 02:59:07;;;;;;;6.75;2.90;;;-0.70;99.90;;;;;;5055263;28;20248;-65
2022/01/21 03:01:36;;;;;;;11.80;3.78;;;-0.70;99.90;;;;;;5057321;28;20406;-65
2022/01/21 03:04:07;;;;;;;8.10;3.03;;;-0.70;99.90;;;;;;5055996;28;20036;-66
2022/01/21 03:06:37;;;;;;;3.83;2.47;;;-0.70;99.90;;;;;;5055157;28;20048;-65
2022/01/21 03:09:10;;;;;;;9.17;3.23;;;-0.70;99.90;;;;;;5055939;28;20248;-66
2022/01/21 03:11:37;;;;;;;7.32;3.28;;;-0.70;99.90;;;;;;5055684;28;20330;-66
2022/01/21 03:14:04;;;;;;;6.43;2.63;;;-0.70;99.90;;;;;;5055576;28;20474;-66
2022/01/21 03:16:31;;;;;;;9.80;3.00;;;-0.70;99.90;;;;;;5055276;28;20048;-66
2022/01/21 03:18:58;;;;;;;7.75;3.65;;;-0.70;99.90;;;;;;5056549;28;20509;-66
2022/01/21 03:21:25;;;;;;;10.63;3.85;;;-0.70;99.90;;;;;;5055992;28;20070;-66
2022/01/21 03:23:54;;;;;;;8.52;2.67;;;-0.70;99.90;;;;;;5055241;28;20048;-65
2022/01/21 03:26:27;;;;;;;14.75;3.38;;;-0.70;99.90;;;;;;5055122;28;20059;-66
2022/01/21 03:28:57;;;;;;;9.73;3.20;;;-0.70;99.90;;;;;;5054503;28;20044;-65
2022/01/21 03:31:27;;;;;;;7.30;3.20;;;-0.70;99.90;;;;;;5055017;28;20060;-66
2022/01/21 03:33:54;;;;;;;14.05;3.53;;;-0.70;99.90;;;;;;5056568;28;20047;-65
2022/01/21 03:36:21;;;;;;;11.43;5.55;;;-0.70;99.90;;;;;;5062497;28;20520;-66
2022/01/21 03:38:48;;;;;;;8.68;3.50;;;-0.70;99.90;;;;;;5039949;28;20259;-66
2022/01/21 03:41:15;;;;;;;13.38;3.65;;;-0.70;99.90;;;;;;5054465;28;20392;-65
2022/01/21 03:43:42;;;;;;;11.02;3.30;;;-0.80;99.90;;;;;;5072588;28;20796;-66
2022/01/21 03:46:09;;;;;;;11.57;4.28;;;-0.80;99.90;;;;;;5071495;28;20048;-65
2022/01/21 03:48:37;;;;;;;9.25;3.80;;;-0.80;99.90;;;;;;5064087;28;20063;-65
2022/01/21 03:51:04;;;;;;;8.13;3.78;;;-0.90;99.90;;;;;;5055007;28;20513;-65
2022/01/21 03:53:31;;;;;;;10.80;3.15;;;-0.90;99.90;;;;;;5056697;28;20426;-65
2022/01/21 03:55:58;;;;;;;8.65;3.45;;;-0.80;99.90;;;;;;5054556;28;20067;-65
2022/01/21 03:58:26;;;;;;;5.63;2.90;;;-0.80;99.90;;;;;;5056074;28;20045;-65
2022/01/21 04:00:55;;;;;;;7.97;3.17;;;-0.90;99.90;;;;;;5047091;28;20099;-65
2022/01/21 04:03:27;;;;;;;7.88;3.13;;;-0.80;99.90;;;;;;5033822;28;20044;-66
2022/01/21 04:05:54;;;;;;;7.53;2.95;;;-0.80;99.90;;;;;;5034776;28;20479;-65
2022/01/21 04:08:22;;;;;;;8.75;3.38;;;-0.80;99.90;;;;;;5033551;28;20080;-66
2022/01/21 04:10:53;;;;;;;6.63;3.30;;;-0.80;99.90;;;;;;5034045;28;20045;-66
2022/01/21 04:13:26;;;;;;;11.63;4.30;;;-0.80;99.90;;;;;;5034239;28;20188;-66
2022/01/21 04:15:58;;;;;;;11.75;4.00;;;-0.80;99.90;;;;;;5034204;28;20511;-66
2022/01/21 04:18:26;;;;;;;11.65;3.45;;;-0.80;99.90;;;;;;5047569;28;20516;-66
2022/01/21 04:20:56;;;;;;;14.48;3.92;;;-0.90;99.90;;;;;;5053885;28;20292;-66
2022/01/21 04:23:25;;;;;;;12.50;3.97;;;-0.90;99.90;;;;;;5054160;28;20048;-66
2022/01/21 04:25:52;;;;;;;13.02;3.40;;;-0.90;99.90;;;;;;5053691;28;20110;-66
2022/01/21 04:28:20;;;;;;;14.23;4.10;;;-0.90;99.90;;;;;;5053523;28;20127;-68
2022/01/21 04:30:48;;;;;;;14.57;4.82;;;-0.90;99.90;;;;;;5053447;28;20033;-66
2022/01/21 04:33:18;;;;;;;16.83;4.20;;;-0.90;99.90;;;;;;5053570;28;20052;-66
2022/01/21 04:35:55;;;;;;;12.40;3.05;;;-1.00;99.90;;;;;;5051395;28;20628;-66
2022/01/21 04:38:23;;;;;;;15.32;4.75;;;-1.00;99.90;;;;;;5032160;28;20037;-66
2022/01/21 04:41:17;;;;;;;17.95;3.63;;;-1.00;99.90;;;;;;5050497;28;20049;-66
2022/01/21 04:49:08;;;;;;;6.43;3.25;;;-1.00;99.90;;;;;;5068900;28;20409;-66
2022/01/21 04:51:41;;;;;;;5.00;2.63;;;-1.00;99.90;;;;;;5054156;28;20048;-66
2022/01/21 04:54:09;;;;;;;8.48;3.35;;;-1.00;99.90;;;;;;5054361;28;20557;-66
2022/01/21 04:56:38;;;;;;;8.85;4.82;;;-1.00;99.90;;;;;;5054711;28;20068;-65
2022/01/21 04:59:05;;;;;;;11.52;3.95;;;-1.00;99.90;;;;;;5070919;28;20041;-66
2022/01/21 05:01:35;;;;;;;10.20;2.70;;;-1.00;99.90;;;;;;5053712;28;20441;-66
2022/01/21 05:04:03;;;;;;;10.07;3.75;;;-1.00;99.90;;;;;;5053585;28;20518;-66
2022/01/21 05:06:34;;;;;;;15.77;3.90;;;-1.00;99.90;;;;;;5053394;28;20076;-66
2022/01/21 05:09:02;;;;;;;14.93;3.70;;;-1.00;99.90;;;;;;5053404;28;20044;-66
2022/01/21 05:11:29;;;;;;;12.18;4.68;;;-1.00;99.90;;;;;;5053599;28;20102;-66
2022/01/21 05:14:11;;;;;;;8.90;3.50;;;-1.00;99.90;;;;;;5053851;28;20135;-66
2022/01/21 05:16:47;;;;;;;14.57;3.45;;;-1.00;99.90;;;;;;5053766;28;20071;-66
2022/01/21 05:19:17;;;;;;;10.75;4.18;;;-1.00;99.90;;;;;;5055623;28;20044;-66
2022/01/21 05:22:03;;;;;;;12.10;4.18;;;-1.00;99.90;;;;;;5059690;28;20055;-66
2022/01/21 05:24:36;;;;;;;11.13;4.50;;;-1.00;99.90;;;;;;5057326;28;20458;-66
2022/01/21 05:27:06;;;;;;;5.57;3.55;;;-1.10;99.90;;;;;;5057572;28;20321;-66
2022/01/21 05:29:41;;;;;;;9.85;3.88;;;-1.10;99.90;;;;;;5057095;28;20426;-66
2022/01/21 05:32:16;;;;;;;10.95;3.85;;;-1.10;99.90;;;;;;5057799;28;20361;-66
2022/01/21 05:35:03;;;;;;;8.73;3.80;;;-1.10;99.90;;;;;;5056986;28;20564;-66
2022/01/21 05:37:49;;;;;;;7.60;3.47;;;-1.10;99.90;;;;;;5052583;28;20155;-66
2022/01/21 05:40:28;;;;;;;8.52;4.28;;;-1.10;99.90;;;;;;5067972;28;20753;-66
2022/01/21 05:43:10;;;;;;;11.77;4.05;;;-1.10;99.90;;;;;;5077554;28;20665;-66
2022/01/21 05:49:35;;;;;;;10.32;4.10;;;-1.10;99.90;;;;;;5021880;28;20114;-65
2022/01/21 05:52:39;;;;;;;7.00;3.40;;;-1.10;99.90;;;;;;5025289;28;20064;-66
2022/01/21 05:55:15;;;;;;;8.15;3.75;;;-1.10;99.90;;;;;;5058842;28;20059;-65
2022/01/21 05:58:00;;;;;;;13.02;5.13;;;-1.10;99.90;;;;;;5058021;28;20078;-66
2022/01/21 06:00:32;;;;;;;9.32;4.03;;;-1.10;99.90;;;;;;5057077;28;20411;-65
2022/01/21 06:02:59;;;;;;;16.10;5.43;;;-1.20;99.90;;;;;;5056705;28;20072;-65
2022/01/21 06:05:26;;;;;;;9.40;4.55;;;-1.20;99.90;;;;;;5057895;28;20045;-65
2022/01/21 06:07:52;;;;;;;11.75;4.97;;;-1.20;99.90;;;;;;5056999;28;20813;-65
2022/01/21 06:10:19;;;;;;;9.23;3.85;;;-1.20;99.90;;;;;;5055654;28;20457;-65
2022/01/21 06:12:46;;;;;;;;;;;-1.20;99.90;;;;;;5058963;28;20294;-66
2022/01/21 06:15:13;;;;;;;9.57;4.28;;;-1.20;99.90;;;;;;5056601;28;19924;-66
2022/01/21 06:17:39;;;;;;;14.90;4.68;;;-1.30;99.90;;;;;;5057967;28;20387;-65
2022/01/21 06:20:07;;;;;;;;;;;-1.20;99.90;;;;;;5058073;28;20052;-65
2022/01/21 06:22:33;;;;;;;12.02;4.07;;;-1.20;99.90;;;;;;5058167;28;19924;-65
2022/01/21 06:25:00;;;;;;;10.05;4.53;;;-1.20;99.90;;;;;;5058321;28;20040;-65
2022/01/21 06:27:27;;;;;;;15.15;5.78;;;-1.20;99.90;;;;;;5057777;28;20041;-65
2022/01/21 06:29:55;;;;;;;10.52;4.63;;;-1.30;99.90;;;;;;5057259;28;20076;-65
2022/01/21 06:32:22;;;;;;;9.05;4.57;;;-1.30;99.90;;;;;;5057653;28;20051;-66
2022/01/21 06:34:49;;;;;;;7.75;4.43;;;-1.30;99.90;;;;;;5057728;28;20072;-65
2022/01/21 06:37:16;;;;;;;12.73;5.38;;;-1.30;99.90;;;;;;5056358;28;20445;-65
2022/01/21 06:39:43;;;;;;;12.48;4.55;;;-1.30;99.90;;;;;;5058179;28;20051;-65
2022/01/21 06:42:10;;;;;;;15.80;6.22;;;-1.30;99.90;;;;;;5057391;28;20048;-65
2022/01/21 06:44:37;;;;;;;21.70;5.10;;;-1.40;99.90;;;;;;5073009;28;20075;-65
2022/01/21 06:47:05;;;;;;;15.48;4.78;;;-1.30;99.90;;;;;;5056272;28;20128;-65
2022/01/21 06:49:31;;;;;;;10.32;4.93;;;-1.40;99.90;;;;;;5056852;28;20048;-66
2022/01/21 06:51:58;;;;;;;;;;;-1.30;99.90;;;;;;5058267;28;20517;-65
2022/01/21 06:54:25;;;;;;;17.80;4.85;;;-1.40;99.90;;;;;;5057712;28;19931;-65
2022/01/21 06:56:51;;;;;;;12.02;5.25;;;-1.40;99.90;;;;;;5057728;28;20478;-65
2022/01/21 06:59:18;;;;;;;13.90;5.22;;;-1.40;99.90;;;;;;5057341;28;20111;-66
2022/01/21 07:01:46;;;;;;;;;;;-1.40;99.90;;;;;;5057657;28;20102;-65
2022/01/21 07:04:13;;;;;;;10.60;4.63;;;-1.40;99.90;;;;;;5057267;28;19924;-65
2022/01/21 07:06:40;;;;;;;11.40;4.65;;;-1.40;99.90;;;;;;5055810;28;20450;-66
2022/01/21 07:09:07;;;;;;;18.45;4.93;;;-1.40;99.90;;;;;;5055703;28;20131;-65
2022/01/21 07:11:34;;;;;;;15.10;4.70;;;-1.40;99.90;;;;;;5056941;28;20300;-65
2022/01/21 07:14:00;;;;;;;;;;;-1.50;99.90;;;;;;5057729;28;20098;-65
2022/01/21 07:16:27;;;;;;;16.02;5.65;;;-1.50;99.90;;;;;;5057176;28;19950;-66
2022/01/21 07:18:54;;;;;;;17.33;5.28;;;-1.50;99.90;;;;;;5056188;28;20059;-65
2022/01/21 07:21:21;;;;;;;10.30;3.83;;;-1.50;99.90;;;;;;5055668;28;20052;-63
2022/01/21 07:23:48;;;;;;;26.50;5.72;;;-1.50;99.90;;;;;;5056253;28;20045;-64
2022/01/21 07:26:15;;;;;;;11.45;4.32;;;-1.50;99.90;;;;;;5072519;28;20565;-64
2022/01/21 07:28:41;;;;;;;;;;;-1.50;99.90;;;;;;5057271;28;20113;-57
2022/01/21 07:31:08;;;;;;;10.27;4.05;;;-1.50;99.90;;;;;;5056523;28;19924;-58
2022/01/21 07:33:37;;;;;;;16.05;5.32;;;-1.40;99.90;;;;;;5056851;28;20415;-58
2022/01/21 07:36:05;;;;;;;11.70;4.70;;;-1.40;99.90;;;;;;5056355;28;20130;-58
2022/01/21 07:38:32;;;;;;;12.10;4.13;;;-1.40;99.90;;;;;;5055087;28;20048;-58
2022/01/21 07:40:59;;;;;;;9.73;4.47;;;-1.40;99.90;;;;;;5060533;28;20117;-58
2022/01/21 07:43:26;;;;;;;;;;;-1.40;99.90;;;;;;5072634;28;20036;-58
2022/01/21 07:45:52;;;;;;;15.30;5.40;;;-1.40;99.90;;;;;;5056226;28;20005;-58
2022/01/21 07:48:19;;;;;;;13.38;5.85;;;-1.30;99.90;;;;;;5055369;28;20052;-58
2022/01/21 07:50:46;;;;;;;14.20;5.35;;;-1.30;99.90;;;;;;5056294;28;20044;-58
2022/01/21 07:53:13;;;;;;;17.50;5.40;;;-1.30;99.90;;;;;;5071143;28;20098;-58
2022/01/21 07:55:40;;;;;;;15.18;5.10;;;-1.30;99.90;;;;;;5056994;28;20056;-58
2022/01/21 07:58:06;;;;;;;;;;;-1.30;99.90;;;;;;5056725;28;20106;-58
2022/01/21 08:00:33;;;;;;;10.65;5.50;;;-1.30;99.90;;;;;;5054452;28;19924;-58
2022/01/21 08:03:01;;;;;;;16.35;5.00;;;-1.30;99.90;;;;;;5056304;28;20102;-58
2022/01/21 08:05:32;;;;;;;10.10;4.43;;;-1.20;99.90;;;;;;5056108;28;20037;-58
2022/01/21 08:07:59;;;;;;;11.63;6.32;;;-1.20;99.90;;;;;;5056731;28;20067;-57
2022/01/21 08:10:26;;;;;;;22.63;5.28;;;-1.20;99.90;;;;;;5056101;28;20045;-66
2022/01/21 08:12:53;;;;;;;22.00;5.75;;;-1.10;99.90;;;;;;5055906;28;20530;-57
2022/01/21 08:15:19;;;;;;;14.32;5.30;;;-1.10;99.90;;;;;;5055078;28;20293;-56
2022/01/21 08:17:46;;;;;;;19.27;6.70;;;-1.00;99.90;;;;;;5051760;28;20048;-56
2022/01/21 08:20:13;;;;;;;;;;;-1.00;99.90;;;;;;5053640;28;20056;-55
2022/01/21 08:22:40;;;;;;;15.85;7.32;;;-0.90;99.90;;;;;;5054546;28;19970;-55
2022/01/21 08:25:08;;;;;;;;;;;-0.90;99.90;;;;;;5057036;28;20052;-57
2022/01/21 08:27:36;;;;;;;15.27;5.53;;;-0.90;99.90;;;;;;5055470;28;19932;-57
2022/01/21 08:30:04;;;;;;;15.77;4.78;;;-0.90;99.90;;;;;;5053960;28;20060;-55
2022/01/21 08:32:32;;;;;;;14.05;5.65;;;-0.90;99.90;;;;;;5055368;28;20059;-55
2022/01/21 08:34:59;;;;;;;14.50;4.95;;;-0.90;99.90;;;;;;5053805;28;20056;-55
2022/01/21 08:37:25;;;;;;;10.20;4.45;;;-0.90;99.90;;;;;;5055396;28;20048;-55
2022/01/21 08:39:52;;;;;;;10.43;5.20;;;-0.80;99.90;;;;;;5054959;28;20044;-56
2022/01/21 08:42:19;;;;;;;13.30;4.97;;;-0.80;99.90;;;;;;5059886;28;20101;-55
2022/01/21 08:44:46;;;;;;;;;;;-0.80;99.90;;;;;;5076676;28;20504;-55
2022/01/21 08:47:12;;;;;;;11.80;5.18;;;-0.80;99.90;;;;;;5072872;28;19931;-55
2022/01/21 08:49:40;;;;;;;9.30;4.05;;;-0.70;99.90;;;;;;5054044;28;20371;-58
2022/01/21 08:52:07;;;;;;;10.27;5.70;;;-0.70;99.90;;;;;;5055439;28;20552;-58
2022/01/21 08:54:34;;;;;;;8.32;4.57;;;-0.60;99.90;;;;;;5054956;28;20053;-60
2022/01/21 08:57:00;;;;;;;16.55;4.55;;;-0.60;99.90;;;;;;5055105;28;20048;-58
2022/01/21 08:59:28;;;;;;;13.00;4.53;;;-0.60;99.90;;;;;;5054641;28;20315;-58
2022/01/21 09:01:54;;;;;;;16.25;4.95;;;-0.50;99.90;;;;;;5055129;28;20534;-58
2022/01/21 09:04:22;;;;;;;13.50;7.38;;;-0.50;99.90;;;;;;5054427;28;20040;-58
2022/01/21 09:06:50;;;;;;;15.90;5.75;;;-0.50;99.90;;;;;;5054230;28;20051;-56
2022/01/21 09:09:17;;;;;;;13.02;5.32;;;-0.50;99.90;;;;;;5052920;28;20052;-56
2022/01/21 09:11:44;;;;;;;13.13;5.38;;;-0.50;99.90;;;;;;5055720;28;20189;-56
2022/01/21 09:14:11;;;;;;;14.13;4.30;;;-0.50;99.90;;;;;;5055009;28;20059;-56
2022/01/21 09:16:42;;;;;;;21.40;5.88;;;-0.50;99.90;;;;;;5055314;28;20126;-56
2022/01/21 09:19:09;;;;;;;11.55;4.50;;;-0.40;99.90;;;;;;5054809;28;20492;-55
2022/01/21 09:21:41;;;;;;;9.68;4.18;;;-0.40;99.90;;;;;;5055182;28;20660;-57
2022/01/21 09:24:08;;;;;;;8.10;3.83;;;-0.40;99.90;;;;;;5054253;28;20070;-56
2022/01/21 09:26:35;;;;;;;9.50;4.18;;;-0.50;99.90;;;;;;5055539;28;20339;-55
2022/01/21 09:29:05;;;;;;;16.30;4.13;;;-0.40;99.90;;;;;;5054732;28;20052;-55
2022/01/21 09:31:32;;;;;;;10.35;4.57;;;-0.40;99.90;;;;;;5054929;28;20453;-55
2022/01/21 09:34:19;;;;;;;16.20;5.10;;;-0.40;99.90;;;;;;5055293;28;20045;-55
2022/01/21 09:36:46;;;;;;;15.30;5.38;;;-0.40;99.90;;;;;;5055473;28;20048;-56
2022/01/21 09:39:14;;;;;;;12.18;4.25;;;-0.40;99.90;;;;;;5054992;28;20094;-59
2022/01/21 09:41:44;;;;;;;13.63;3.92;;;-0.40;99.90;;;;;;5059541;28;20069;-58
2022/01/21 09:44:13;;;;;;;16.55;5.88;;;-0.40;99.90;;;;;;5057052;28;20090;-58
2022/01/21 09:46:44;;;;;;;15.98;5.32;;;-0.40;99.90;;;;;;5073519;28;20052;-58
2022/01/21 09:49:26;;;;;;;16.58;5.03;;;-0.40;99.90;;;;;;5055165;28;20032;-59
2022/01/21 09:51:58;;;;;;;15.77;4.90;;;-0.40;99.90;;;;;;5052694;28;20052;-58
2022/01/21 09:54:32;;;;;;;11.10;3.88;;;-0.40;99.90;;;;;;5054890;28;20055;-58
2022/01/21 09:57:00;;;;;;;11.40;4.82;;;-0.40;99.90;;;;;;5055232;28;20126;-58
2022/01/21 09:59:29;;;;;;;13.05;4.70;;;-0.30;99.90;;;;;;5054134;28;20045;-59
2022/01/21 10:02:08;;;;;;;11.77;4.05;;;-0.30;99.90;;;;;;5054742;28;20441;-58
2022/01/21 10:04:42;;;;;;;11.93;4.55;;;-0.20;99.90;;;;;;5055044;28;20064;-57
2022/01/21 10:07:16;;;;;;;14.77;4.68;;;-0.20;99.90;;;;;;5058845;28;20651;-45
2022/01/21 10:09:45;;;;;;;15.40;5.53;;;-0.10;99.90;;;;;;5057149;28;20052;-56
2022/01/21 10:12:13;;;;;;;11.85;4.90;;;0.00;99.90;;;;;;5056174;28;20322;-55
2022/01/21 10:14:41;;;;;;;10.00;3.85;;;0.00;99.90;;;;;;5057178;28;20407;-55
2022/01/21 10:17:12;;;;;;;13.95;4.30;;;0.10;99.90;;;;;;5058756;28;20048;-55
2022/01/21 10:19:40;;;;;;;11.23;4.75;;;0.10;99.90;;;;;;5056601;28;20063;-55
2022/01/21 10:22:10;;;;;;;9.55;4.03;;;0.20;99.90;;;;;;5057196;28;20079;-55
2022/01/21 10:24:52;;;;;;;6.72;4.00;;;0.20;99.90;;;;;;5058288;28;20241;-55
2022/01/21 10:27:25;;;;;;;13.15;4.65;;;0.30;99.90;;;;;;5057489;28;20562;-55
2022/01/21 10:29:53;;;;;;;9.65;4.57;;;0.30;99.90;;;;;;5054627;28;20362;-55
2022/01/21 10:32:39;;;;;;;14.63;4.70;;;0.30;99.90;;;;;;5055532;28;20269;-55
2022/01/21 10:35:26;;;;;;;14.43;3.92;;;0.30;99.90;;;;;;5058060;28;20463;-55
2022/01/21 10:37:56;;;;;;;16.88;4.43;;;0.30;99.90;;;;;;5055949;28;20523;-56
2022/01/21 10:40:34;;;;;;;11.65;4.80;;;0.30;99.90;;;;;;5057993;28;20502;-55
2022/01/21 10:43:15;;;;;;;20.38;5.18;;;0.30;99.90;;;;;;5057730;28;20051;-55
2022/01/21 10:45:54;;;;;;;11.05;3.67;;;0.30;99.90;;;;;;5069669;28;20392;-58
2022/01/21 10:48:21;;;;;;;11.25;4.45;;;0.30;99.90;;;;;;5064917;28;20155;-57
2022/01/21 10:51:07;;;;;;;;;;;0.30;99.90;;;;;;5055973;28;20048;-55
2022/01/21 10:53:34;;;;;;;16.65;4.30;;;0.40;99.90;;;;;;5057047;28;20014;-55
2022/01/21 10:56:12;;;;;;;8.65;3.38;;;0.40;99.90;;;;;;5057071;28;20044;-56
2022/01/21 10:58:41;;;;;;;8.90;3.67;;;0.40;99.90;;;;;;5057223;28;20533;-56
2022/01/21 11:01:13;;;;;;;9.60;4.80;;;0.50;99.90;;;;;;5057231;28;20630;-56
2022/01/21 11:03:57;;;;;;;7.53;4.07;;;0.50;99.90;;;;;;5057550;28;20052;-56
2022/01/21 11:06:26;;;;;;;14.38;4.57;;;0.60;99.90;;;;;;5057021;28;20037;-56
2022/01/21 11:09:19;;;;;;;13.05;4.60;;;0.60;99.90;;;;;;5072619;28;20122;-56
2022/01/21 11:12:07;;;;;;;9.73;3.38;;;0.60;99.90;;;;;;5056389;28;20044;-56
2022/01/21 11:14:37;;;;;;;;;;;0.60;99.90;;;;;;5057568;28;20056;-56
2022/01/21 11:17:15;;;;;;;12.60;4.70;;;0.70;99.90;;;;;;5056128;28;20054;-56
2022/01/21 11:20:07;;;;;;;11.32;4.32;;;0.70;99.90;;;;;;5054484;28;20463;-56
2022/01/21 11:22:52;;;;;;;12.68;4.22;;;0.70;99.90;;;;;;5056276;28;20044;-56
2022/01/21 11:25:57;;;;;;;7.00;3.75;;;0.70;99.90;;;;;;5056395;28;20040;-56
2022/01/21 11:28:49;;;;;;;10.52;4.22;;;0.70;99.90;;;;;;5056586;28;20044;-56
2022/01/21 11:31:21;;;;;;;14.85;6.47;;;0.70;99.90;;;;;;5056856;28;20040;-56
2022/01/21 11:34:08;;;;;;;8.80;3.88;;;0.80;99.90;;;;;;5056535;28;20122;-56
2022/01/21 11:36:34;;;;;;;;;;;0.80;99.90;;;;;;5057442;28;20158;-56
2022/01/21 11:39:02;;;;;;;8.13;4.18;;;0.90;99.90;;;;;;5056652;28;19939;-56
2022/01/21 11:41:31;;;;;;;18.55;6.22;;;0.90;99.90;;;;;;5056456;28;20048;-56
2022/01/21 11:44:01;;;;;;;14.98;5.43;;;0.90;99.90;;;;;;5054099;28;20056;-56
2022/01/21 11:49:09;;;;;;;18.60;5.95;;;0.90;99.90;;;;;;5057788;28;20498;-57
2022/01/21 11:51:40;;;;;;;14.18;5.22;;;0.90;99.90;;;;;;5071496;28;20043;-57
2022/01/21 11:54:13;;;;;;;15.85;4.88;;;1.00;99.90;;;;;;5056655;28;20554;-57
2022/01/21 11:56:46;;;;;;;10.68;4.70;;;1.10;99.90;;;;;;5056518;28;20059;-58
2022/01/21 11:59:36;;;;;;;16.00;4.75;;;1.20;99.90;;;;;;5055579;28;20055;-57
2022/01/21 12:02:14;;;;;;;12.50;5.97;;;1.40;99.90;;;;;;5071788;28;20237;-58
2022/01/21 12:04:52;;;;;;;9.70;4.43;;;1.80;99.90;;;;;;5056005;28;20060;-58
2022/01/21 12:07:40;;;;;;;11.15;3.42;;;2.20;99.90;;;;;;5056155;28;20469;-57
2022/01/21 12:10:21;;;;;;;7.22;3.33;;;2.80;99.90;;;;;;5055958;28;20494;-58
2022/01/21 12:12:54;;;;;;;12.10;3.63;;;3.30;99.90;;;;;;5056277;28;20048;-58
2022/01/21 12:15:24;;;;;;;11.48;3.17;;;3.70;99.90;;;;;;5055675;28;20049;-58
2022/01/21 12:18:04;;;;;;;7.55;2.72;;;3.90;99.90;;;;;;5055683;28;20088;-58
2022/01/21 12:20:32;;;;;;;7.30;3.03;;;3.90;99.90;;;;;;5055243;28;20118;-58
2022/01/21 12:23:14;;;;;;;12.77;2.90;;;3.90;99.90;;;;;;5056252;28;20040;-58
2022/01/21 12:26:18;;;;;;;10.68;3.20;;;4.00;99.90;;;;;;5055482;28;20055;-58
2022/01/21 12:28:46;;;;;;;6.97;2.85;;;4.20;99.90;;;;;;5055041;28;20048;-58
2022/01/21 12:31:15;;;;;;;7.80;3.30;;;4.30;99.90;;;;;;5070875;28;20062;-58
2022/01/21 12:34:05;;;;;;;7.72;3.33;;;4.40;99.90;;;;;;5055810;28;20118;-58
2022/01/21 12:36:36;;;;;;;7.95;3.08;;;4.50;98.80;;;;;;5055971;28;20040;-58
2022/01/21 12:39:24;;;;;;;4.85;1.98;;;4.40;97.20;;;;;;5071899;28;20106;-58
2022/01/21 12:41:56;;;;;;;8.00;2.35;;;4.40;95.70;;;;;;5055425;28;20525;-58
2022/01/21 12:44:30;;;;;;;;;;;4.50;95.00;;;;;;5054230;28;20680;-59
2022/01/21 12:46:57;;;;;;;6.18;2.40;;;4.60;93.70;;;;;;5045747;28;19952;-58
2022/01/21 12:49:29;;;;;;;;;;;4.70;92.70;;;;;;5055971;28;20620;-58
2022/01/21 12:52:30;;;;;;;6.32;2.50;;;5.00;93.20;;;;;;5055587;28;19928;-57
2022/01/21 12:57:43;;;;;;;6.72;2.05;;;5.50;90.60;;;;;;5034301;28;20040;-56
2022/01/21 13:00:11;;;;;;;10.50;2.63;;;5.60;88.70;;;;;;5033710;28;20045;-55
2022/01/21 13:02:38;;;;;;;6.18;1.90;;;5.60;87.30;;;;;;5044645;28;20040;-55
2022/01/21 13:05:07;;;;;;;5.65;2.25;;;5.50;85.00;;;;;;5052747;28;20110;-54
2022/01/21 13:08:10;;;;;;;5.35;1.98;;;5.20;82.20;;;;;;5054309;28;20036;-54
2022/01/21 13:10:38;;;;;;;9.95;2.17;;;5.00;83.00;;;;;;5054902;28;20542;-54
2022/01/21 13:15:38;;;;;;;6.10;2.28;;;4.50;83.10;;;;;;5053806;28;20348;-58
2022/01/21 13:18:19;;;;;;;8.77;2.40;;;4.20;83.10;;;;;;5054559;28;20294;-57
2022/01/21 13:20:48;;;;;;;7.07;1.92;;;3.90;85.00;;;;;;5055165;28;20048;-57
2022/01/21 13:23:36;;;;;;;5.10;2.00;;;3.80;84.90;;;;;;5053576;28;20098;-57
2022/01/21 13:26:39;;;;;;;5.90;2.70;;;3.90;81.70;;;;;;5054724;28;20045;-57
2022/01/21 13:29:13;;;;;;;14.98;2.53;;;4.10;83.10;;;;;;5046786;28;20118;-58
2022/01/21 13:31:49;;;;;;;6.20;2.10;;;4.30;81.10;;;;;;5054780;28;20110;-58
2022/01/21 13:34:26;;;;;;;8.10;2.00;;;4.60;79.80;;;;;;5053259;28;20075;-57
2022/01/21 13:36:58;;;;;;;4.18;2.25;;;4.90;79.00;;;;;;5055738;28;20492;-58
2022/01/21 13:39:40;;;;;;;9.65;2.17;;;5.30;77.10;;;;;;5055896;28;20637;-58
2022/01/21 13:42:11;;;;;;;7.82;2.90;;;5.50;72.40;;;;;;5057449;28;20052;-57
2022/01/21 13:44:42;;;;;;;7.38;3.00;;;5.60;72.00;;;;;;5058903;28;20616;-57
2022/01/21 13:47:32;;;;;;;4.95;2.25;;;5.70;72.90;;;;;;5057211;28;20421;-57
2022/01/21 13:50:11;;;;;;;7.88;2.60;;;5.80;69.90;;;;;;5054352;28;20040;-57
2022/01/21 13:52:48;;;;;;;7.72;1.92;;;5.90;69.60;;;;;;5058410;28;20148;-58
2022/01/21 13:55:24;;;;;;;8.38;3.42;;;5.80;67.80;;;;;;5058494;28;20055;-58
2022/01/21 13:57:52;;;;;;;10.32;1.92;;;5.90;65.90;;;;;;5058028;28;20173;-58
2022/01/21 14:00:28;;;;;;;6.75;3.35;;;6.00;64.80;;;;;;5057033;28;20067;-57
2022/01/21 14:03:28;;;;;;;12.60;3.03;;;6.10;65.60;;;;;;5058070;28;20056;-58
2022/01/21 14:05:56;;;;;;;13.13;4.20;;;6.20;65.70;;;;;;5057009;28;20060;-57
2022/01/21 14:08:31;;;;;;;5.50;3.08;;;6.10;67.50;;;;;;5056443;28;20045;-57
2022/01/21 14:10:59;;;;;;;13.00;3.15;;;5.90;69.30;;;;;;5058749;28;20044;-58
2022/01/21 14:13:28;;;;;;;8.70;3.28;;;5.70;69.90;;;;;;5058492;28;20032;-58
2022/01/21 14:15:58;;;;;;;15.32;3.85;;;5.60;69.30;;;;;;5056221;28;20522;-57